createdAt,value
2023-03-01T00:00:14.909Z,10.00
2023-03-01T00:05:13.785Z,9.10
2023-03-01T00:07:42.555Z,11.20
2023-03-01T00:10:13.070Z,10.30
2023-03-01T00:12:42.400Z,10.50
2023-03-01T00:15:11.443Z,13.30
2023-03-01T00:17:40.539Z,12.80
2023-03-01T00:20:11.428Z,11.90
2023-03-01T00:22:40.891Z,11.00
2023-03-01T00:25:09.508Z,11.90
2023-03-01T00:27:37.904Z,11.90
2023-03-01T00:30:07.829Z,10.60
2023-03-01T00:32:36.379Z,11.70
2023-03-01T00:35:05.165Z,11.50
2023-03-01T00:37:33.744Z,11.80
2023-03-01T00:40:02.164Z,12.50
2023-03-01T00:42:33.025Z,11.90
2023-03-01T00:45:02.154Z,12.10
2023-03-01T00:47:30.792Z,12.50
2023-03-01T00:49:59.469Z,11.90
2023-03-01T00:52:29.575Z,11.30
2023-03-01T00:54:59.072Z,12.20
2023-03-01T00:57:27.741Z,16.10
2023-03-01T00:59:56.138Z,14.80
2023-03-01T01:02:24.781Z,13.70
2023-03-01T01:04:53.291Z,14.90
2023-03-01T01:07:22.115Z,13.70
2023-03-01T01:09:50.535Z,15.20
2023-03-01T01:12:22.501Z,13.60
2023-03-01T01:14:50.949Z,14.00
2023-03-01T01:17:19.303Z,14.80
2023-03-01T01:19:47.703Z,15.10
2023-03-01T01:22:16.206Z,14.20
2023-03-01T01:24:45.938Z,14.90
2023-03-01T01:27:14.416Z,16.40
2023-03-01T01:29:43.355Z,13.90
2023-03-01T01:32:11.987Z,13.00
2023-03-01T01:34:40.402Z,15.50
2023-03-01T01:37:09.094Z,15.20
2023-03-01T01:39:38.723Z,15.90
2023-03-01T01:42:07.689Z,15.20
2023-03-01T01:44:36.785Z,16.20
2023-03-01T01:47:18.465Z,13.20
2023-03-01T01:49:56.520Z,12.80
2023-03-01T01:52:36.461Z,11.70
2023-03-01T01:55:08.122Z,12.90
2023-03-01T01:57:44.581Z,11.10
2023-03-01T02:00:22.530Z,12.20
2023-03-01T02:02:56.100Z,10.70
2023-03-01T02:05:56.745Z,11.90
2023-03-01T02:08:28.298Z,11.90
2023-03-01T02:11:05.422Z,10.40
2023-03-01T02:13:39.740Z,10.90
2023-03-01T02:16:14.338Z,11.00
2023-03-01T02:18:43.092Z,12.00
2023-03-01T02:21:21.453Z,10.00
2023-03-01T02:23:56.845Z,9.70
2023-03-01T02:26:54.078Z,10.40
2023-03-01T02:29:23.743Z,10.00
2023-03-01T02:31:52.703Z,10.40
2023-03-01T02:34:26.447Z,11.40
2023-03-01T02:36:58.444Z,10.70
2023-03-01T02:39:30.376Z,10.00
2023-03-01T02:42:00.160Z,11.60
2023-03-01T02:44:30.045Z,10.80
2023-03-01T02:46:58.855Z,11.30
2023-03-01T02:49:30.162Z,11.30
2023-03-01T02:52:17.537Z,11.90
2023-03-01T02:54:48.372Z,13.70
2023-03-01T02:57:17.689Z,15.00
2023-03-01T02:59:46.379Z,14.50
2023-03-01T03:02:38.103Z,14.80
2023-03-01T03:05:21.748Z,14.20
2023-03-01T03:07:53.643Z,10.20
2023-03-01T03:10:25.975Z,10.80
2023-03-01T03:13:00.379Z,9.60
2023-03-01T03:15:30.249Z,8.10
2023-03-01T03:17:59.512Z,8.80
2023-03-01T03:20:29.384Z,8.70
2023-03-01T03:22:59.556Z,8.30
2023-03-01T03:25:29.352Z,9.00
2023-03-01T03:27:59.158Z,8.90
2023-03-01T03:30:30.188Z,7.70
2023-03-01T03:32:59.341Z,9.10
2023-03-01T03:35:31.440Z,8.00
2023-03-01T03:38:04.056Z,10.20
2023-03-01T03:40:41.262Z,9.20
2023-03-01T03:43:15.754Z,9.90
2023-03-01T03:45:48.855Z,8.80
2023-03-01T03:48:18.400Z,9.20
2023-03-01T03:50:52.192Z,8.50
2023-03-01T03:53:21.409Z,8.60
2023-03-01T03:55:53.043Z,8.80
2023-03-01T03:58:23.333Z,8.00
2023-03-01T04:00:59.830Z,7.90
2023-03-01T04:03:30.684Z,7.90
2023-03-01T04:06:01.013Z,7.60
2023-03-01T04:08:30.094Z,7.20
2023-03-01T04:11:01.625Z,7.70
2023-03-01T04:13:35.870Z,8.00
2023-03-01T04:16:04.808Z,8.40
2023-03-01T04:18:33.267Z,8.00
2023-03-01T04:21:02.168Z,6.90
2023-03-01T04:23:31.077Z,8.30
2023-03-01T04:25:59.938Z,7.30
2023-03-01T04:28:35.044Z,7.10
2023-03-01T04:31:15.056Z,7.20
2023-03-01T04:33:54.600Z,6.70
2023-03-01T04:36:28.834Z,7.10
2023-03-01T04:38:58.329Z,7.30
2023-03-01T04:41:28.443Z,7.50
2023-03-01T04:44:01.650Z,7.40
2023-03-01T04:46:30.777Z,6.50
2023-03-01T04:48:59.464Z,7.40
2023-03-01T04:51:28.606Z,7.20
2023-03-01T04:54:01.683Z,6.90
2023-03-01T04:56:32.666Z,8.20
2023-03-01T04:59:01.844Z,6.70
2023-03-01T05:01:30.271Z,7.10
2023-03-01T05:04:04.459Z,7.10
2023-03-01T05:06:34.370Z,6.90
2023-03-01T05:09:04.825Z,8.20
2023-03-01T05:11:37.054Z,8.20
2023-03-01T05:14:06.850Z,7.30
2023-03-01T05:16:36.508Z,7.40
2023-03-01T05:19:12.949Z,7.10
2023-03-01T05:22:01.351Z,7.20
2023-03-01T05:24:33.847Z,6.90
2023-03-01T05:27:03.001Z,7.00
2023-03-01T05:29:37.278Z,7.70
2023-03-01T05:32:06.281Z,7.80
2023-03-01T05:34:36.689Z,10.00
2023-03-01T05:37:05.679Z,8.80
2023-03-01T05:39:34.298Z,10.50
2023-03-01T05:42:03.263Z,8.30
2023-03-01T05:44:32.165Z,8.60
2023-03-01T05:47:00.698Z,9.20
2023-03-01T05:49:30.197Z,8.60
2023-03-01T05:51:58.647Z,10.20
2023-03-01T05:54:27.641Z,8.20
2023-03-01T05:56:56.100Z,7.40
2023-03-01T05:59:24.680Z,7.80
2023-03-01T06:01:54.860Z,8.30
2023-03-01T06:04:24.262Z,8.40
2023-03-01T06:06:53.114Z,8.20
2023-03-01T06:09:27.441Z,8.80
2023-03-01T06:11:55.907Z,8.80
2023-03-01T06:14:24.587Z,8.50
2023-03-01T06:16:53.320Z,8.60
2023-03-01T06:19:22.426Z,7.80
2023-03-01T06:21:51.285Z,7.90
2023-03-01T06:24:19.842Z,10.20
2023-03-01T06:26:48.421Z,8.50
2023-03-01T06:29:17.134Z,7.80
2023-03-01T06:31:47.034Z,9.20
2023-03-01T06:34:15.909Z,7.70
2023-03-01T06:36:44.855Z,11.30
2023-03-01T06:39:15.709Z,8.50
2023-03-01T06:41:45.127Z,8.90
2023-03-01T06:44:13.723Z,9.50
2023-03-01T06:46:43.969Z,10.00
2023-03-01T06:49:12.598Z,10.40
2023-03-01T06:51:43.373Z,10.90
2023-03-01T06:54:12.151Z,12.10
2023-03-01T06:56:41.412Z,14.50
2023-03-01T06:59:10.324Z,11.60
2023-03-01T07:01:42.492Z,8.80
2023-03-01T07:04:12.092Z,8.50
2023-03-01T07:06:40.759Z,8.90
2023-03-01T07:09:11.089Z,9.30
2023-03-01T07:11:39.765Z,9.10
2023-03-01T07:14:17.192Z,9.50
2023-03-01T07:16:47.356Z,9.30
2023-03-01T07:19:19.262Z,9.00
2023-03-01T07:21:48.570Z,7.00
2023-03-01T07:24:17.343Z,7.90
2023-03-01T07:26:53.324Z,7.10
2023-03-01T07:29:21.996Z,7.50
2023-03-01T07:31:50.559Z,8.70
2023-03-01T07:34:21.169Z,8.20
2023-03-01T07:36:50.770Z,7.80
2023-03-01T07:39:20.022Z,9.30
2023-03-01T07:41:49.103Z,10.00
2023-03-01T07:44:19.672Z,12.20
2023-03-01T07:46:49.400Z,12.00
2023-03-01T07:49:18.750Z,8.30
2023-03-01T07:51:48.873Z,9.50
2023-03-01T07:54:17.628Z,9.30
2023-03-01T07:56:46.008Z,8.90
2023-03-01T07:59:15.491Z,8.70
2023-03-01T08:01:44.648Z,9.30
2023-03-01T08:04:13.272Z,8.90
2023-03-01T08:06:44.440Z,10.30
2023-03-01T08:09:14.451Z,9.40
2023-03-01T08:11:47.018Z,27.00
2023-03-01T08:14:35.503Z,13.20
2023-03-01T08:17:05.352Z,8.70
2023-03-01T08:19:35.901Z,9.30
2023-03-01T08:22:05.294Z,7.70
2023-03-01T08:24:34.232Z,8.30
2023-03-01T08:27:04.074Z,7.30
2023-03-01T08:29:35.566Z,10.40
2023-03-01T08:32:04.380Z,7.50
2023-03-01T08:34:33.634Z,7.60
2023-03-01T08:37:03.079Z,7.90
2023-03-01T08:39:31.838Z,7.10
2023-03-01T08:42:02.169Z,7.00
2023-03-01T08:44:31.294Z,7.10
2023-03-01T08:47:01.253Z,7.30
2023-03-01T08:49:29.887Z,7.00
2023-03-01T08:51:59.216Z,6.90
2023-03-01T08:54:28.206Z,6.40
2023-03-01T08:56:56.708Z,6.80
2023-03-01T08:59:26.419Z,7.00
2023-03-01T09:01:54.865Z,6.80
2023-03-01T09:04:23.479Z,6.90
2023-03-01T09:06:52.599Z,6.90
2023-03-01T09:09:21.851Z,7.80
2023-03-01T09:11:51.435Z,6.20
2023-03-01T09:14:20.117Z,8.00
2023-03-01T09:16:50.373Z,7.00
2023-03-01T09:19:20.056Z,7.90
2023-03-01T09:21:57.088Z,6.80
2023-03-01T09:24:26.729Z,6.80
2023-03-01T09:26:57.578Z,7.00
2023-03-01T09:29:27.172Z,6.80
2023-03-01T09:31:56.601Z,6.20
2023-03-01T09:34:25.706Z,5.40
2023-03-01T09:36:54.762Z,5.90
2023-03-01T09:39:23.535Z,7.10
2023-03-01T09:42:05.752Z,6.40
2023-03-01T09:45:02.438Z,6.30
2023-03-01T09:47:32.556Z,6.20
2023-03-01T09:50:18.299Z,6.30
2023-03-01T09:53:07.839Z,6.10
2023-03-01T09:55:47.768Z,6.00
2023-03-01T09:58:32.467Z,6.90
2023-03-01T10:01:18.535Z,6.20
2023-03-01T10:04:12.465Z,6.90
2023-03-01T10:06:57.158Z,6.50
2023-03-01T10:09:34.672Z,6.10
2023-03-01T10:12:03.909Z,7.30
2023-03-01T10:14:51.239Z,9.00
2023-03-01T10:18:01.619Z,6.20
2023-03-01T10:20:39.498Z,5.80
2023-03-01T10:23:09.686Z,6.60
2023-03-01T10:25:42.449Z,6.90
2023-03-01T10:28:19.065Z,6.80
2023-03-01T10:30:53.547Z,8.00
2023-03-01T10:33:33.001Z,7.70
2023-03-01T10:36:02.818Z,7.10
2023-03-01T10:38:34.434Z,6.90
2023-03-01T10:41:07.714Z,7.10
2023-03-01T10:43:52.267Z,6.90
2023-03-01T10:49:23.593Z,6.80
2023-03-01T10:51:53.550Z,6.70
2023-03-01T10:54:25.774Z,7.90
2023-03-01T10:56:56.819Z,7.40
2023-03-01T10:59:39.332Z,8.20
2023-03-01T11:02:23.538Z,8.20
2023-03-01T11:05:04.175Z,8.70
2023-03-01T11:07:34.780Z,7.90
2023-03-01T11:10:19.244Z,8.90
2023-03-01T11:12:49.155Z,11.00
2023-03-01T11:15:28.601Z,11.80
2023-03-01T11:18:09.055Z,10.90
2023-03-01T11:23:12.688Z,10.80
2023-03-01T11:25:49.584Z,11.50
2023-03-01T11:28:42.651Z,11.70
2023-03-01T11:32:08.374Z,10.40
2023-03-01T11:34:40.786Z,11.90
2023-03-01T11:37:15.167Z,10.20
2023-03-01T11:40:26.540Z,11.90
2023-03-01T11:43:13.505Z,11.80
2023-03-01T11:45:51.981Z,11.70
2023-03-01T11:48:49.006Z,7.50
2023-03-01T11:51:56.931Z,9.00
2023-03-01T11:54:41.587Z,9.40
2023-03-01T11:57:44.024Z,7.40
2023-03-01T12:00:29.139Z,7.50
2023-03-01T12:03:09.491Z,6.90
2023-03-01T12:05:47.064Z,6.90
2023-03-01T12:08:19.482Z,7.10
2023-03-01T12:11:04.357Z,7.00
2023-03-01T12:13:56.010Z,8.70
2023-03-01T12:16:38.863Z,8.00
2023-03-01T12:19:15.109Z,7.80
2023-03-01T12:22:15.122Z,7.60
2023-03-01T12:24:47.569Z,7.60
2023-03-01T12:27:20.987Z,9.70
2023-03-01T12:30:17.675Z,8.60
2023-03-01T12:33:34.684Z,8.60
2023-03-01T12:36:37.251Z,12.50
2023-03-01T12:39:11.280Z,14.00
2023-03-01T12:42:04.209Z,17.90
2023-03-01T12:48:42.462Z,6.50
2023-03-01T12:51:13.698Z,6.30
2023-03-01T12:53:45.346Z,7.40
2023-03-01T12:56:23.221Z,7.40
2023-03-01T12:59:31.460Z,8.70
2023-03-01T13:02:38.175Z,9.20
2023-03-01T13:05:30.338Z,8.90
2023-03-01T13:07:58.737Z,8.70
2023-03-01T13:10:59.864Z,9.40
2023-03-01T13:13:30.032Z,9.30
2023-03-01T13:15:58.805Z,9.20
2023-03-01T13:18:31.046Z,9.70
2023-03-01T13:21:00.936Z,9.10
2023-03-01T13:23:40.317Z,10.30
2023-03-01T13:26:16.886Z,8.80
2023-03-01T13:28:47.604Z,9.60
2023-03-01T13:31:16.169Z,10.10
2023-03-01T13:33:48.307Z,10.90
2023-03-01T13:36:43.816Z,10.60
2023-03-01T13:39:33.924Z,10.50
2023-03-01T13:42:02.473Z,9.20
2023-03-01T13:44:37.493Z,11.30
2023-03-01T13:47:15.838Z,10.90
2023-03-01T13:49:52.106Z,12.80
2023-03-01T13:52:46.520Z,12.60
2023-03-01T13:55:19.774Z,10.50
2023-03-01T13:57:54.957Z,10.40
2023-03-01T14:00:27.159Z,10.40
2023-03-01T14:03:06.271Z,9.00
2023-03-01T14:05:37.266Z,12.50
2023-03-01T14:08:06.804Z,20.40
2023-03-01T14:10:51.354Z,23.70
2023-03-01T14:13:54.180Z,12.20
2023-03-01T14:16:32.294Z,10.20
2023-03-01T14:19:32.730Z,10.80
2023-03-01T14:22:28.635Z,10.50
2023-03-01T14:25:07.071Z,10.70
2023-03-01T14:27:43.283Z,10.20
2023-03-01T14:30:23.213Z,11.00
2023-03-01T14:32:57.325Z,10.10
2023-03-01T14:37:59.632Z,9.00
2023-03-01T14:40:34.081Z,8.30
2023-03-01T14:45:34.535Z,8.60
2023-03-01T14:48:04.620Z,8.60
2023-03-01T14:50:35.829Z,9.80
2023-03-01T14:53:09.283Z,9.30
2023-03-01T14:55:39.406Z,8.90
2023-03-01T14:58:13.089Z,7.90
2023-03-01T15:00:57.167Z,8.50
2023-03-01T15:03:40.386Z,8.50
2023-03-01T15:06:08.837Z,8.80
2023-03-01T15:08:37.569Z,9.50
2023-03-01T15:11:31.753Z,8.20
2023-03-01T15:14:00.970Z,9.30
2023-03-01T15:16:33.961Z,9.40
2023-03-01T15:19:05.832Z,10.20
2023-03-01T15:21:38.635Z,9.00
2023-03-01T15:24:20.634Z,15.80
2023-03-01T15:26:56.542Z,9.90
2023-03-01T15:29:31.095Z,12.10
2023-03-01T15:32:05.382Z,8.70
2023-03-01T15:34:35.302Z,13.50
2023-03-01T15:37:06.998Z,9.40
2023-03-01T15:39:46.668Z,8.60
2023-03-01T15:42:35.188Z,7.90
2023-03-01T15:45:21.894Z,9.70
2023-03-01T15:47:54.119Z,9.10
2023-03-01T15:50:29.166Z,9.90
2023-03-01T15:53:00.753Z,9.90
2023-03-01T15:55:30.816Z,9.60
2023-03-01T15:58:08.022Z,8.70
2023-03-01T16:00:40.928Z,10.40
2023-03-01T16:03:13.263Z,10.80
2023-03-01T16:05:42.130Z,10.80
2023-03-01T16:08:10.475Z,11.00
2023-03-01T16:10:44.985Z,11.40
2023-03-01T16:13:14.947Z,11.50
2023-03-01T16:15:45.072Z,10.60
2023-03-01T16:18:15.807Z,9.40
2023-03-01T16:20:44.191Z,8.80
2023-03-01T16:23:17.995Z,8.90
2023-03-01T16:25:47.465Z,9.50
2023-03-01T16:28:15.930Z,9.20
2023-03-01T16:30:52.055Z,8.10
2023-03-01T16:33:29.937Z,9.00
2023-03-01T16:36:11.394Z,7.90
2023-03-01T16:38:40.102Z,8.60
2023-03-01T16:41:13.375Z,7.60
2023-03-01T16:43:42.444Z,7.50
2023-03-01T16:46:15.420Z,7.80
2023-03-01T16:48:44.154Z,8.10
2023-03-01T16:51:12.703Z,8.00
2023-03-01T16:53:47.873Z,8.10
2023-03-01T16:56:19.640Z,8.20
2023-03-01T16:58:48.345Z,8.10
2023-03-01T17:01:25.669Z,9.00
2023-03-01T17:03:54.473Z,9.10
2023-03-01T17:06:24.801Z,8.70
2023-03-01T17:08:53.714Z,9.50
2023-03-01T17:11:22.175Z,8.60
2023-03-01T17:13:56.826Z,10.50
2023-03-01T17:16:25.552Z,10.00
2023-03-01T17:18:54.010Z,15.50
2023-03-01T17:21:22.550Z,10.30
2023-03-01T17:23:56.448Z,9.70
2023-03-01T17:26:25.504Z,10.40
2023-03-01T17:28:54.210Z,8.20
2023-03-01T17:31:23.140Z,9.30
2023-03-01T17:33:52.516Z,9.10
2023-03-01T17:36:21.092Z,9.50
2023-03-01T17:38:52.192Z,9.40
2023-03-01T17:41:22.193Z,13.30
2023-03-01T17:43:50.609Z,11.70
2023-03-01T17:46:19.651Z,9.60
2023-03-01T17:48:50.021Z,11.90
2023-03-01T17:51:38.570Z,12.60
2023-03-01T17:54:07.039Z,13.80
2023-03-01T17:56:39.019Z,12.20
2023-03-01T17:59:08.233Z,12.00
2023-03-01T18:01:39.002Z,13.20
2023-03-01T18:04:07.456Z,12.60
2023-03-01T18:06:36.213Z,13.30
2023-03-01T18:09:04.890Z,11.80
2023-03-01T18:11:35.850Z,11.90
2023-03-01T18:14:06.021Z,13.00
2023-03-01T18:16:35.012Z,14.50
2023-03-01T18:19:10.765Z,14.10
2023-03-01T18:21:39.970Z,12.10
2023-03-01T18:24:08.410Z,14.70
2023-03-01T18:26:39.928Z,12.80
2023-03-01T18:29:10.765Z,10.70
2023-03-01T18:31:42.180Z,11.60
2023-03-01T18:34:11.925Z,10.10
2023-03-01T18:37:00.405Z,9.70
2023-03-01T18:39:34.198Z,10.10
2023-03-01T18:42:04.172Z,10.00
2023-03-01T18:44:33.810Z,10.00
2023-03-01T18:47:02.521Z,11.00
2023-03-01T18:49:33.123Z,10.10
2023-03-01T18:52:01.777Z,8.70
2023-03-01T18:54:30.386Z,8.20
2023-03-01T18:56:58.939Z,8.80
2023-03-01T18:59:27.364Z,8.30
2023-03-01T19:01:56.333Z,7.00
2023-03-01T19:04:24.795Z,7.80
2023-03-01T19:06:54.364Z,12.20
2023-03-01T19:09:26.350Z,11.40
2023-03-01T19:11:59.016Z,9.50
2023-03-01T19:14:27.684Z,8.10
2023-03-01T19:16:56.871Z,9.40
2023-03-01T19:19:25.402Z,9.20
2023-03-01T19:22:05.250Z,9.40
2023-03-01T19:24:36.778Z,8.30
2023-03-01T19:27:05.189Z,8.30
2023-03-01T19:29:36.216Z,7.80
2023-03-01T19:32:05.126Z,8.10
2023-03-01T19:34:33.685Z,9.20
2023-03-01T19:37:02.528Z,8.50
2023-03-01T19:39:30.981Z,7.70
2023-03-01T19:41:59.402Z,9.40
2023-03-01T19:44:28.792Z,8.30
2023-03-01T19:46:58.795Z,7.90
2023-03-01T19:49:27.337Z,8.30
2023-03-01T19:51:56.302Z,8.50
2023-03-01T19:54:25.028Z,8.40
2023-03-01T19:56:53.544Z,8.70
2023-03-01T19:59:24.886Z,8.60
2023-03-01T20:01:53.518Z,8.40
2023-03-01T20:04:22.338Z,9.70
2023-03-01T20:06:52.330Z,9.10
2023-03-01T20:09:22.575Z,9.50
2023-03-01T20:11:52.325Z,8.50
2023-03-01T20:14:27.535Z,9.30
2023-03-01T20:16:56.183Z,9.10
2023-03-01T20:19:24.771Z,8.10
2023-03-01T20:21:53.933Z,7.30
2023-03-01T20:24:23.405Z,7.70
2023-03-01T20:26:52.004Z,9.00
2023-03-01T20:29:22.210Z,8.70
2023-03-01T20:31:50.770Z,8.60
2023-03-01T20:34:19.464Z,9.30
2023-03-01T20:36:47.866Z,8.50
2023-03-01T20:39:19.166Z,7.60
2023-03-01T20:41:47.542Z,8.80
2023-03-01T20:44:18.270Z,6.60
2023-03-01T20:46:47.217Z,9.20
2023-03-01T20:49:15.665Z,9.60
2023-03-01T20:51:44.591Z,8.70
2023-03-01T20:54:14.384Z,8.60
2023-03-01T20:56:43.695Z,8.70
2023-03-01T20:59:12.316Z,8.50
2023-03-01T21:01:40.786Z,7.70
2023-03-01T21:04:10.200Z,8.30
2023-03-01T21:06:40.129Z,7.20
2023-03-01T21:09:08.557Z,8.30
2023-03-01T21:11:41.346Z,8.30
2023-03-01T21:14:13.197Z,7.80
2023-03-01T21:16:45.977Z,8.00
2023-03-01T21:19:15.984Z,7.80
2023-03-01T21:21:44.861Z,7.60
2023-03-01T21:24:15.325Z,7.80
2023-03-01T21:26:45.242Z,8.00
2023-03-01T21:29:13.650Z,7.40
2023-03-01T21:31:42.736Z,8.80
2023-03-01T21:34:14.186Z,8.00
2023-03-01T21:36:43.672Z,7.50
2023-03-01T21:39:12.972Z,7.50
2023-03-01T21:41:41.413Z,6.80
2023-03-01T21:44:09.956Z,7.80
2023-03-01T21:46:39.304Z,7.90
2023-03-01T21:49:10.412Z,8.00
2023-03-01T21:51:38.928Z,7.50
2023-03-01T21:54:12.515Z,7.40
2023-03-01T21:56:41.448Z,8.40
2023-03-01T21:59:19.311Z,8.50
2023-03-01T22:01:48.265Z,8.00
2023-03-01T22:04:17.015Z,8.10
2023-03-01T22:06:46.546Z,7.40
2023-03-01T22:09:19.917Z,8.50
2023-03-01T22:11:51.762Z,8.00
2023-03-01T22:14:21.578Z,8.70
2023-03-01T22:16:51.920Z,9.90
2023-03-01T22:19:21.430Z,10.10
2023-03-01T22:21:51.414Z,10.00
2023-03-01T22:24:23.481Z,9.30
2023-03-01T22:26:52.388Z,9.70
2023-03-01T22:29:27.085Z,9.20
2023-03-01T22:31:56.035Z,8.70
2023-03-01T22:34:24.623Z,10.10
2023-03-01T22:36:53.404Z,10.50
2023-03-01T22:39:22.201Z,8.60
2023-03-01T22:41:51.469Z,10.10
2023-03-01T22:44:22.428Z,10.90
2023-03-01T22:46:51.659Z,8.90
2023-03-01T22:49:20.249Z,8.20
2023-03-01T22:51:48.865Z,9.40
2023-03-01T22:54:18.110Z,8.90
2023-03-01T22:56:46.765Z,8.60
2023-03-01T22:59:23.334Z,8.50
2023-03-01T23:01:52.566Z,9.70
2023-03-01T23:04:21.675Z,9.90
2023-03-01T23:06:50.838Z,8.60
2023-03-01T23:09:22.950Z,8.60
2023-03-01T23:11:52.309Z,8.90
2023-03-01T23:14:21.737Z,8.80
2023-03-01T23:16:50.411Z,9.20
2023-03-01T23:19:19.257Z,9.20
2023-03-01T23:21:51.777Z,8.90
2023-03-01T23:24:22.280Z,9.20
2023-03-01T23:26:53.931Z,8.70
2023-03-01T23:29:22.577Z,8.80
2023-03-01T23:31:51.275Z,8.50
2023-03-01T23:34:21.971Z,7.90
2023-03-01T23:36:52.629Z,8.80
2023-03-01T23:39:23.359Z,8.80
2023-03-01T23:41:51.946Z,8.10
2023-03-01T23:44:22.300Z,8.50
2023-03-01T23:46:51.177Z,8.90
2023-03-01T23:49:22.165Z,8.30
2023-03-01T23:51:51.447Z,8.10
2023-03-01T23:54:21.746Z,8.90
2023-03-01T23:56:50.411Z,8.80
2023-03-01T23:59:23.266Z,7.60
